createdAt,value
2022-11-09T00:28:20.003Z,78.54
2022-11-09T00:58:20.094Z,78.8
2022-11-09T01:28:20.018Z,78.91
2022-11-09T01:58:20.011Z,78.98
2022-11-09T02:28:20.018Z,78.96
2022-11-09T02:58:20.014Z,78.74
2022-11-09T03:28:20.024Z,78.94
2022-11-09T03:58:20.029Z,78.77
2022-11-09T04:28:20.032Z,79.07
2022-11-09T04:58:24.832Z,79.22
2022-11-09T05:28:20.034Z,79.09
2022-11-09T05:58:20.033Z,78.92
2022-11-09T06:28:20.037Z,80.71
2022-11-09T06:58:20.073Z,82.17
2022-11-09T07:28:20.049Z,82.48
2022-11-09T07:58:20.066Z,83.01
2022-11-09T08:28:20.426Z,83.24
2022-11-09T08:58:20.407Z,83.34
2022-11-09T09:28:20.390Z,83.34
2022-11-09T09:58:20.409Z,83.76
2022-11-09T10:28:20.456Z,83.53
2022-11-09T10:58:20.355Z,83.33
2022-11-09T11:28:20.115Z,83.02
2022-11-09T11:58:20.081Z,82.58
2022-11-09T12:28:20.087Z,82.39
2022-11-09T12:58:20.391Z,82.13
2022-11-09T13:28:20.107Z,82.57
2022-11-09T13:58:20.304Z,82.5
2022-11-09T14:28:20.403Z,82.53
2022-11-09T14:58:20.425Z,82.89
2022-11-09T15:28:20.597Z,83.32
2022-11-09T15:58:20.521Z,83.71
2022-11-09T16:28:20.425Z,84.11
2022-11-09T16:58:20.513Z,84.46
2022-11-09T17:28:20.458Z,84.85
2022-11-09T17:58:20.514Z,85.24
2022-11-09T18:28:20.608Z,85.48
2022-11-09T18:58:20.645Z,86
2022-11-09T19:28:20.515Z,87
2022-11-09T19:58:20.579Z,87.73
2022-11-09T20:28:20.662Z,87.91
2022-11-09T20:58:20.544Z,88.08
2022-11-09T21:28:20.571Z,87.94
2022-11-09T21:58:20.173Z,88.01
2022-11-09T22:28:20.188Z,88.8
2022-11-09T22:58:20.185Z,88.72
2022-11-09T23:28:20.187Z,89
2022-11-09T23:58:20.186Z,89.17
